createdAt,value
2019-05-14T00:00:41.837Z,103578.69
2019-05-14T00:03:11.752Z,103581.20
2019-05-14T00:16:24.341Z,103589.25
2019-05-14T00:18:53.268Z,103594.50
2019-05-14T00:21:22.190Z,103591.45
2019-05-14T00:23:51.514Z,103595.09
2019-05-14T00:26:21.480Z,103594.62
2019-05-14T00:28:51.287Z,103590.28
2019-05-14T00:31:21.354Z,103594.22
2019-05-14T00:33:52.880Z,103584.22
2019-05-14T00:36:21.746Z,103581.66
2019-05-14T00:38:52.666Z,103580.31
2019-05-14T00:41:21.686Z,103579.36
2019-05-14T00:43:51.377Z,103582.46
2019-05-14T00:46:21.150Z,103580.72
2019-05-14T00:48:51.419Z,103580.69
2019-05-14T00:51:23.883Z,103584.66
2019-05-14T00:53:52.697Z,103586.89
2019-05-14T00:56:21.971Z,103584.33
2019-05-14T00:58:52.217Z,103587.83
2019-05-14T01:01:21.572Z,103590.02
2019-05-14T01:03:52.130Z,103585.27
2019-05-14T01:06:21.890Z,103588.77
2019-05-14T01:08:51.887Z,103585.72
2019-05-14T01:11:22.142Z,103586.11
2019-05-14T01:13:52.222Z,103581.36
2019-05-14T01:16:22.420Z,103582.69
2019-05-14T01:18:51.480Z,103583.55
2019-05-14T01:21:27.904Z,103589.16
2019-05-14T01:23:55.061Z,103587.87
2019-05-14T01:26:23.876Z,103584.00
2019-05-14T01:28:52.695Z,103588.38
2019-05-14T01:31:22.050Z,103586.19
2019-05-14T01:33:51.610Z,103587.94
2019-05-14T01:36:21.480Z,103577.84
2019-05-14T01:38:51.270Z,103579.16
2019-05-14T01:41:22.384Z,103561.27
2019-05-14T01:43:51.299Z,103582.24
2019-05-14T01:46:20.997Z,103580.95
2019-05-14T01:48:52.052Z,103580.50
2019-05-14T01:51:22.316Z,103577.86
2019-05-14T01:53:52.122Z,103583.55
2019-05-14T01:56:21.417Z,103584.45
2019-05-14T01:58:52.289Z,103589.70
2019-05-14T02:01:21.872Z,103590.14
2019-05-14T02:03:51.834Z,103591.00
2019-05-14T02:06:21.354Z,103597.12
2019-05-14T02:08:51.477Z,103601.92
2019-05-14T02:11:21.463Z,103598.44
2019-05-14T02:13:51.900Z,103599.70
2019-05-14T02:16:21.906Z,103600.62
2019-05-14T02:18:52.192Z,103600.16
2019-05-14T02:21:22.952Z,103601.88
2019-05-14T02:23:51.788Z,103600.61
2019-05-14T02:26:22.089Z,103593.61
2019-05-14T02:28:51.512Z,103597.53
2019-05-14T02:34:14.364Z,103593.57
2019-05-14T02:36:43.148Z,103595.77
2019-05-14T02:39:12.031Z,103583.95
2019-05-14T02:41:40.818Z,103590.97
2019-05-14T02:44:10.219Z,103587.88
2019-05-14T02:46:40.365Z,103603.97
2019-05-14T02:49:10.600Z,103603.53
2019-05-14T02:51:39.626Z,103605.66
2019-05-14T02:54:09.977Z,103595.29
2019-05-14T02:56:40.263Z,103587.42
2019-05-14T02:59:10.734Z,103593.05
2019-05-14T03:01:40.803Z,103597.42
2019-05-14T03:04:11.747Z,103590.45
2019-05-14T03:06:40.670Z,103584.83
2019-05-14T03:09:09.948Z,103585.16
2019-05-14T03:11:40.319Z,103579.85
2019-05-14T03:14:09.611Z,103589.50
2019-05-14T03:16:40.358Z,103588.25
2019-05-14T03:19:10.134Z,103584.66
2019-05-14T03:21:39.806Z,103578.95
2019-05-14T03:24:10.088Z,103588.11
2019-05-14T03:26:39.776Z,103584.09
2019-05-14T03:29:09.907Z,103587.59
2019-05-14T03:31:42.785Z,103572.87
2019-05-14T03:34:13.389Z,103577.30
2019-05-14T03:36:42.926Z,103565.03
2019-05-14T03:39:11.111Z,103572.43
2019-05-14T03:41:40.189Z,103578.98
2019-05-14T03:44:10.040Z,103580.76
2019-05-14T03:46:48.955Z,103580.33
2019-05-14T03:49:10.845Z,103584.72
2019-05-14T03:51:40.041Z,103579.88
2019-05-14T03:54:12.815Z,103592.39
2019-05-14T03:56:39.779Z,103587.20
2019-05-14T03:59:09.793Z,103593.75
2019-05-14T04:01:40.045Z,103587.72
2019-05-14T04:04:10.339Z,103587.72
2019-05-14T04:06:41.677Z,103595.53
2019-05-14T04:09:12.042Z,103597.64
2019-05-14T04:11:42.599Z,103601.61
2019-05-14T04:14:13.857Z,103595.61
2019-05-14T04:17:00.063Z,103597.32
2019-05-14T04:19:18.830Z,103600.38
2019-05-14T04:21:49.341Z,103592.05
2019-05-14T04:24:22.051Z,103597.75
2019-05-14T04:27:01.969Z,103601.69
2019-05-14T04:29:23.766Z,103599.07
2019-05-14T04:31:54.311Z,103603.47
2019-05-14T04:34:23.766Z,103607.41
2019-05-14T04:36:52.931Z,103604.34
2019-05-14T04:39:21.887Z,103605.28
2019-05-14T04:41:50.823Z,103602.69
2019-05-14T04:44:19.682Z,103607.95
2019-05-14T04:46:49.297Z,103596.63
2019-05-14T04:49:19.882Z,103595.73
2019-05-14T04:51:50.366Z,103597.52
2019-05-14T04:54:19.809Z,103590.08
2019-05-14T04:56:50.681Z,103593.16
2019-05-14T04:59:19.397Z,103590.11
2019-05-14T05:01:49.313Z,103594.94
2019-05-14T05:04:20.351Z,103599.33
2019-05-14T05:06:50.026Z,103596.70
2019-05-14T05:09:20.030Z,103595.83
2019-05-14T05:11:49.973Z,103597.11
2019-05-14T05:14:20.402Z,103590.09
2019-05-14T05:16:49.955Z,103596.19
2019-05-14T05:19:19.612Z,103595.32
2019-05-14T05:21:54.991Z,103593.08
2019-05-14T05:24:24.467Z,103591.70
2019-05-14T05:26:53.425Z,103584.10
2019-05-14T05:29:22.302Z,103589.73
2019-05-14T05:31:51.117Z,103586.98
2019-05-14T05:34:51.210Z,103586.44
2019-05-14T05:39:52.635Z,103580.02
2019-05-14T05:42:21.808Z,103570.06
2019-05-14T05:44:52.673Z,103566.92
2019-05-14T05:47:21.809Z,103567.61
2019-05-14T05:49:50.629Z,103571.14
2019-05-14T05:52:19.558Z,103565.95
2019-05-14T05:54:49.156Z,103561.94
2019-05-14T05:57:18.726Z,103570.35
2019-05-14T05:59:48.670Z,103564.48
2019-05-14T06:02:19.244Z,103562.97
2019-05-14T06:04:50.268Z,103560.70
2019-05-14T06:07:19.362Z,103564.67
2019-05-14T06:09:48.456Z,103561.80
2019-05-14T06:12:19.004Z,103568.63
2019-05-14T06:14:48.751Z,103566.14
2019-05-14T06:17:19.078Z,103549.08
2019-05-14T06:19:48.649Z,103555.69
2019-05-14T06:22:18.873Z,103556.25
2019-05-14T06:24:48.639Z,103561.53
2019-05-14T06:27:18.193Z,103550.47
2019-05-14T06:29:48.959Z,103550.47
2019-05-14T06:32:18.687Z,103559.95
2019-05-14T06:34:48.897Z,103552.19
2019-05-14T06:37:19.197Z,103552.19
2019-05-14T06:39:58.603Z,103556.52
2019-05-14T06:42:34.797Z,103555.89
2019-05-14T06:45:42.232Z,103549.54
2019-05-14T06:48:26.453Z,103543.81
2019-05-14T06:56:51.334Z,103553.62
2019-05-14T06:59:20.181Z,103562.44
2019-05-14T07:01:49.406Z,103561.23
2019-05-14T07:04:19.137Z,103562.06
2019-05-14T07:06:48.616Z,103561.02
2019-05-14T07:09:18.394Z,103568.69
2019-05-14T07:11:49.200Z,103563.18
2019-05-14T07:14:19.042Z,103567.67
2019-05-14T07:16:48.634Z,103566.95
2019-05-14T07:19:19.140Z,103560.28
2019-05-14T07:21:49.196Z,103558.41
2019-05-14T07:24:19.546Z,103559.55
2019-05-14T07:26:49.504Z,103558.95
2019-05-14T07:29:21.737Z,103556.52
2019-05-14T07:31:52.330Z,103552.41
2019-05-14T07:34:21.405Z,103548.36
2019-05-14T07:36:52.582Z,103550.86
2019-05-14T07:39:21.841Z,103557.70
2019-05-14T07:41:51.079Z,103556.37
2019-05-14T07:44:21.680Z,103552.95
2019-05-14T07:46:51.063Z,103550.69
2019-05-14T07:49:19.966Z,103537.58
2019-05-14T07:51:49.979Z,103542.87
2019-05-14T07:54:19.608Z,103544.78
2019-05-14T07:56:49.815Z,103551.09
2019-05-14T07:59:20.556Z,103543.41
2019-05-14T08:01:49.652Z,103536.26
2019-05-14T08:04:20.018Z,103540.23
2019-05-14T08:06:49.154Z,103531.59
2019-05-14T08:09:18.956Z,103533.19
2019-05-14T08:11:51.630Z,103524.70
2019-05-14T08:18:00.712Z,103528.09
2019-05-14T08:20:29.739Z,103521.40
2019-05-14T08:22:59.326Z,103523.40
2019-05-14T08:25:28.387Z,103518.96
2019-05-14T08:27:59.417Z,103520.07
2019-05-14T08:30:28.740Z,103513.44
2019-05-14T08:32:58.375Z,103511.48
2019-05-14T08:35:29.057Z,103509.45
2019-05-14T08:38:07.780Z,103506.12
2019-05-14T08:40:28.874Z,103504.58
2019-05-14T08:42:58.407Z,103493.59
2019-05-14T08:45:28.381Z,103495.29
2019-05-14T08:47:58.688Z,103492.95
2019-05-14T08:50:28.198Z,103493.45
2019-05-14T08:52:58.250Z,103494.75
2019-05-14T08:55:29.514Z,103482.55
2019-05-14T08:57:59.214Z,103494.09
2019-05-14T09:00:28.660Z,103492.98
2019-05-14T09:03:04.878Z,103490.00
2019-05-14T09:05:33.897Z,103490.95
2019-05-14T09:08:02.690Z,103486.95
2019-05-14T09:10:31.982Z,103484.52
2019-05-14T09:13:02.818Z,103479.19
2019-05-14T09:15:32.852Z,103485.82
2019-05-14T09:18:04.148Z,103477.37
2019-05-14T09:20:34.799Z,103472.89
2019-05-14T09:23:05.336Z,103476.48
2019-05-14T09:25:34.374Z,103464.30
2019-05-14T09:28:04.546Z,103466.85
2019-05-14T09:30:33.802Z,103457.66
2019-05-14T09:33:02.699Z,103449.35
2019-05-14T09:35:32.071Z,103462.72
2019-05-14T09:38:01.102Z,103464.81
2019-05-14T09:40:30.205Z,103463.67
2019-05-14T09:43:13.233Z,103454.94
2019-05-14T09:45:40.997Z,103461.80
2019-05-14T09:48:58.777Z,103472.45
2019-05-14T09:53:24.943Z,103464.45
2019-05-14T09:54:21.624Z,103457.98
2019-05-14T09:56:50.578Z,103459.11
2019-05-14T09:59:21.523Z,103464.34
2019-05-14T10:01:50.925Z,103454.35
2019-05-14T10:04:20.120Z,103457.61
2019-05-14T10:06:50.744Z,103453.69
2019-05-14T10:09:21.796Z,103452.08
2019-05-14T10:12:08.937Z,103443.69
2019-05-14T10:14:39.298Z,103447.23
2019-05-14T10:17:08.728Z,103442.00
2019-05-14T10:19:40.192Z,103438.11
2019-05-14T10:22:14.283Z,103436.97
2019-05-14T10:24:43.683Z,103431.05
2019-05-14T10:27:12.872Z,103426.78
2019-05-14T10:29:41.946Z,103416.06
2019-05-14T10:32:11.218Z,103418.36
2019-05-14T10:34:41.395Z,103414.22
2019-05-14T10:37:10.722Z,103402.89
2019-05-14T10:39:39.732Z,103406.91
2019-05-14T10:42:09.181Z,103413.05
2019-05-14T10:44:38.847Z,103416.49
2019-05-14T10:47:09.171Z,103413.98
2019-05-14T10:49:38.922Z,103405.19
2019-05-14T10:52:08.491Z,103405.45
2019-05-14T10:54:40.214Z,103401.44
2019-05-14T10:57:18.249Z,103397.09
2019-05-14T10:59:46.451Z,103396.06
2019-05-14T11:02:15.563Z,103397.48
2019-05-14T11:04:45.114Z,103389.27
2019-05-14T11:07:14.511Z,103392.87
2019-05-14T11:12:31.936Z,103395.03
2019-05-14T11:15:00.922Z,103394.19
2019-05-14T11:17:34.061Z,103391.15
2019-05-14T11:20:07.971Z,103391.40
2019-05-14T11:22:39.617Z,103383.41
2019-05-14T11:25:09.303Z,103381.93
2019-05-14T11:27:38.917Z,103374.63
2019-05-14T11:30:09.169Z,103369.73
2019-05-14T11:32:38.662Z,103369.81
2019-05-14T11:35:12.750Z,103370.98
2019-05-14T11:37:41.459Z,103375.19
2019-05-14T11:40:10.907Z,103366.33
2019-05-14T11:42:39.982Z,103367.62
2019-05-14T11:45:10.157Z,103359.64
2019-05-14T11:47:39.363Z,103363.47
2019-05-14T11:50:11.257Z,103352.25
2019-05-14T11:53:27.193Z,103349.81
2019-05-14T11:56:01.260Z,103339.58
2019-05-14T11:58:44.274Z,103340.86
2019-05-14T12:01:55.289Z,103343.31
2019-05-14T12:04:33.358Z,103336.36
2019-05-14T12:07:09.369Z,103330.41
2019-05-14T12:09:40.894Z,103324.33
2019-05-14T12:12:12.753Z,103318.78
2019-05-14T12:14:41.933Z,103312.19
2019-05-14T12:17:10.947Z,103312.22
2019-05-14T12:19:43.397Z,103309.06
2019-05-14T12:22:12.075Z,103309.96
2019-05-14T12:24:46.113Z,103300.22
2019-05-14T12:27:15.464Z,103306.76
2019-05-14T12:29:44.373Z,103293.76
2019-05-14T12:32:13.285Z,103297.22
2019-05-14T12:34:42.216Z,103291.47
2019-05-14T12:37:11.101Z,103288.72
2019-05-14T12:39:42.589Z,103286.31
2019-05-14T12:42:11.534Z,103292.77
2019-05-14T12:44:58.542Z,103285.52
2019-05-14T12:47:29.015Z,103300.86
2019-05-14T12:50:04.407Z,103281.70
2019-05-14T12:52:33.711Z,103286.72
2019-05-14T12:55:02.932Z,103286.79
2019-05-14T12:57:32.768Z,103284.12
2019-05-14T13:00:02.895Z,103272.43
2019-05-14T13:02:34.769Z,103273.03
2019-05-14T13:05:03.792Z,103262.74
2019-05-14T13:07:42.267Z,103270.09
2019-05-14T13:10:12.684Z,103275.61
2019-05-14T13:12:41.812Z,103263.02
2019-05-14T13:15:13.315Z,103252.33
2019-05-14T13:17:42.121Z,103256.90
2019-05-14T13:20:14.154Z,103263.29
2019-05-14T13:22:46.385Z,103252.33
2019-05-14T13:25:14.202Z,103250.62
2019-05-14T13:27:43.320Z,103247.84
2019-05-14T13:30:14.957Z,103248.30
2019-05-14T13:32:44.231Z,103241.81
2019-05-14T13:38:39.904Z,103248.25
2019-05-14T13:41:22.515Z,103257.09
2019-05-14T13:43:51.591Z,103237.42
2019-05-14T13:46:22.678Z,103228.36
2019-05-14T13:49:08.941Z,103235.16
2019-05-14T13:51:41.131Z,103232.45
2019-05-14T13:54:12.904Z,103229.75
2019-05-14T13:56:42.458Z,103228.05
2019-05-14T13:59:14.845Z,103223.13
2019-05-14T14:01:49.576Z,103220.00
2019-05-14T14:04:20.851Z,103213.70
2019-05-14T14:06:51.729Z,103212.30
2019-05-14T14:09:31.467Z,103212.66
2019-05-14T14:12:00.833Z,103208.61
2019-05-14T14:14:34.932Z,103209.61
2019-05-14T14:17:04.287Z,103213.00
2019-05-14T14:19:55.486Z,103209.72
2019-05-14T14:22:32.180Z,103203.98
2019-05-14T14:25:08.972Z,103194.59
2019-05-14T14:27:40.823Z,103194.52
2019-05-14T14:30:10.211Z,103197.40
2019-05-14T14:32:58.766Z,103207.70
2019-05-14T14:35:30.550Z,103202.52
2019-05-14T14:37:59.884Z,103201.27
2019-05-14T14:40:30.223Z,103199.78
2019-05-14T14:43:01.375Z,103197.70
2019-05-14T14:45:32.620Z,103189.95
2019-05-14T14:48:01.910Z,103190.58
2019-05-14T14:50:31.411Z,103196.58
2019-05-14T14:53:00.455Z,103192.48
2019-05-14T14:55:30.545Z,103190.20
2019-05-14T14:58:00.515Z,103201.05
2019-05-14T15:00:30.035Z,103190.94
2019-05-14T15:03:02.670Z,103189.27
2019-05-14T15:05:31.753Z,103188.48
2019-05-14T15:08:00.726Z,103190.77
2019-05-14T15:10:32.510Z,103189.98
2019-05-14T15:13:02.483Z,103191.92
2019-05-14T15:15:32.541Z,103183.40
2019-05-14T15:18:01.912Z,103185.38
2019-05-14T15:20:30.892Z,103183.78
2019-05-14T15:23:00.193Z,103178.90
2019-05-14T15:25:38.530Z,103178.59
2019-05-14T15:28:09.404Z,103181.63
2019-05-14T15:30:39.668Z,103181.61
2019-05-14T15:33:09.290Z,103181.09
2019-05-14T15:35:43.511Z,103178.94
2019-05-14T15:38:12.631Z,103172.44
2019-05-14T15:40:44.267Z,103167.50
2019-05-14T15:43:15.029Z,103177.80
2019-05-14T15:45:44.109Z,103177.81
2019-05-14T15:48:14.265Z,103178.13
2019-05-14T15:50:44.712Z,103164.77
2019-05-14T15:53:14.104Z,103181.11
2019-05-14T15:55:45.113Z,103175.27
2019-05-14T15:58:14.041Z,103176.36
2019-05-14T16:00:43.104Z,103182.33
2019-05-14T16:03:12.337Z,103175.39
2019-05-14T16:05:41.324Z,103173.62
2019-05-14T16:08:10.400Z,103174.75
2019-05-14T16:10:40.708Z,103167.28
2019-05-14T16:13:09.642Z,103159.64
2019-05-14T16:15:39.027Z,103156.88
2019-05-14T16:18:18.566Z,103152.45
2019-05-14T16:20:41.678Z,103158.11
2019-05-14T16:25:51.108Z,103140.20
2019-05-14T16:28:19.918Z,103142.05
2019-05-14T16:30:49.550Z,103136.05
2019-05-14T16:33:18.935Z,103137.19
2019-05-14T16:35:48.672Z,103139.33
2019-05-14T16:38:17.515Z,103147.38
2019-05-14T16:40:48.959Z,103136.03
2019-05-14T16:43:19.078Z,103139.24
2019-05-14T16:45:49.127Z,103137.50
2019-05-14T16:48:20.211Z,103136.77
2019-05-14T16:50:49.382Z,103131.71
2019-05-14T16:53:22.097Z,103132.53
2019-05-14T16:55:51.102Z,103130.84
2019-05-14T16:58:20.043Z,103129.02
2019-05-14T17:00:49.036Z,103135.84
2019-05-14T17:03:19.154Z,103134.05
2019-05-14T17:05:48.763Z,103127.02
2019-05-14T17:08:19.044Z,103119.41
2019-05-14T17:10:48.374Z,103125.16
2019-05-14T17:13:17.937Z,103120.75
2019-05-14T17:15:48.516Z,103123.20
2019-05-14T17:18:19.258Z,103130.97
2019-05-14T17:26:51.967Z,103123.34
2019-05-14T17:29:20.970Z,103131.59
2019-05-14T17:31:51.838Z,103132.86
2019-05-14T17:34:20.671Z,103129.55
2019-05-14T17:36:49.698Z,103131.14
2019-05-14T17:39:25.485Z,103129.48
2019-05-14T17:41:55.353Z,103131.16
2019-05-14T17:44:24.930Z,103127.53
2019-05-14T17:46:54.012Z,103126.48
2019-05-14T17:49:23.891Z,103129.27
2019-05-14T17:51:52.695Z,103131.11
2019-05-14T17:54:21.666Z,103123.73
2019-05-14T17:56:50.518Z,103126.89
2019-05-14T17:59:19.400Z,103127.92
2019-05-14T18:01:48.285Z,103122.95
2019-05-14T18:04:22.252Z,103128.70
2019-05-14T18:06:51.171Z,103125.87
2019-05-14T18:09:20.721Z,103123.81
2019-05-14T18:11:53.634Z,103126.70
2019-05-14T18:14:29.689Z,103125.56
2019-05-14T18:16:59.873Z,103118.58
2019-05-14T18:19:29.054Z,103125.09
2019-05-14T18:21:59.344Z,103119.95
2019-05-14T18:24:29.761Z,103119.95
2019-05-14T18:26:58.948Z,103111.62
2019-05-14T18:29:29.845Z,103114.58
2019-05-14T18:32:01.303Z,103112.82
2019-05-14T18:34:31.473Z,103118.64
2019-05-14T18:37:01.438Z,103113.78
2019-05-14T18:39:30.476Z,103101.50
2019-05-14T18:42:00.605Z,103113.76
2019-05-14T18:44:29.885Z,103110.89
2019-05-14T18:46:59.437Z,103108.52
2019-05-14T18:49:29.217Z,103109.34
2019-05-14T18:52:03.708Z,103104.41
2019-05-14T18:54:34.041Z,103105.38
2019-05-14T18:57:04.439Z,103108.27
2019-05-14T18:59:34.394Z,103105.50
2019-05-14T19:02:03.614Z,103104.33
2019-05-14T19:04:32.856Z,103109.20
2019-05-14T19:07:02.143Z,103108.52
2019-05-14T19:09:34.105Z,103110.46
2019-05-14T19:12:04.302Z,103110.00
2019-05-14T19:14:33.187Z,103109.72
2019-05-14T19:17:02.214Z,103113.37
2019-05-14T19:19:32.496Z,103111.20
2019-05-14T19:22:04.690Z,103109.75
2019-05-14T19:24:33.666Z,103120.81
2019-05-14T19:27:02.837Z,103125.42
2019-05-14T19:29:31.965Z,103121.11
2019-05-14T19:32:01.881Z,103119.19
2019-05-14T19:34:31.479Z,103124.94
2019-05-14T19:37:09.362Z,103127.05
2019-05-14T19:39:38.771Z,103125.92
2019-05-14T19:42:08.676Z,103127.81
2019-05-14T19:44:40.177Z,103129.83
2019-05-14T19:47:09.160Z,103130.91
2019-05-14T19:49:38.379Z,103132.30
2019-05-14T19:52:08.206Z,103134.95
2019-05-14T19:54:38.406Z,103113.86
2019-05-14T19:57:09.943Z,103126.02
2019-05-14T19:59:39.114Z,103127.95
2019-05-14T20:02:11.654Z,103125.34
2019-05-14T20:04:41.289Z,103131.27
2019-05-14T20:07:11.376Z,103130.14
2019-05-14T20:09:40.571Z,103135.78
2019-05-14T20:12:10.097Z,103130.83
2019-05-14T20:14:39.457Z,103131.80
2019-05-14T20:17:12.536Z,103137.68
2019-05-14T20:19:42.160Z,103132.48
2019-05-14T20:22:11.623Z,103132.09
2019-05-14T20:24:41.791Z,103125.00
2019-05-14T20:27:12.219Z,103122.14
2019-05-14T20:29:42.006Z,103129.05
2019-05-14T20:32:11.144Z,103117.23
2019-05-14T20:34:40.201Z,103113.68
2019-05-14T20:37:11.309Z,103116.53
2019-05-14T20:39:40.419Z,103124.63
2019-05-14T20:42:09.340Z,103120.68
2019-05-14T20:44:49.004Z,103117.92
2019-05-14T20:47:15.618Z,103119.29
2019-05-14T20:49:45.678Z,103122.20
2019-05-14T20:52:14.508Z,103119.61
2019-05-14T20:54:47.810Z,103117.57
2019-05-14T20:57:33.680Z,103117.19
2019-05-14T21:00:02.712Z,103116.78
2019-05-14T21:02:31.524Z,103118.97
2019-05-14T21:05:04.602Z,103116.27
2019-05-14T21:07:31.199Z,103111.55
2019-05-14T21:10:00.063Z,103108.81
2019-05-14T21:12:28.992Z,103114.70
2019-05-14T21:14:59.154Z,103112.98
2019-05-14T21:17:28.826Z,103121.70
2019-05-14T21:19:59.321Z,103117.89
2019-05-14T21:22:31.764Z,103112.78
2019-05-14T21:25:00.655Z,103114.70
2019-05-14T21:27:40.839Z,103115.75
2019-05-14T21:30:04.081Z,103112.27
2019-05-14T21:32:33.392Z,103109.73
2019-05-14T21:35:04.239Z,103106.20
2019-05-14T21:37:34.480Z,103111.06
2019-05-14T21:40:04.366Z,103110.31
2019-05-14T21:42:35.051Z,103110.25
2019-05-14T21:45:09.760Z,103108.10
2019-05-14T21:47:44.424Z,103115.16
2019-05-14T21:50:18.018Z,103114.37
2019-05-14T21:52:49.765Z,103109.55
2019-05-14T21:55:20.043Z,103110.06
2019-05-14T21:57:56.912Z,103112.86
2019-05-14T22:00:31.987Z,103112.33
2019-05-14T22:03:02.614Z,103108.84
2019-05-14T22:05:31.614Z,103103.27
2019-05-14T22:08:01.287Z,103109.80
2019-05-14T22:10:32.853Z,103100.23
2019-05-14T22:13:10.132Z,103100.70
2019-05-14T22:15:39.470Z,103101.69
2019-05-14T22:18:17.218Z,103102.56
2019-05-14T22:20:41.623Z,103102.64
2019-05-14T22:23:10.806Z,103098.28
2019-05-14T22:25:40.241Z,103103.56
2019-05-14T22:28:15.353Z,103101.84
2019-05-14T22:30:39.877Z,103101.03
2019-05-14T22:33:08.865Z,103098.38
2019-05-14T22:35:39.687Z,103102.80
2019-05-14T22:38:08.757Z,103095.00
2019-05-14T22:40:39.051Z,103100.27
2019-05-14T22:43:09.189Z,103096.37
2019-05-14T22:45:38.457Z,103098.09
2019-05-14T22:48:09.354Z,103093.38
2019-05-14T22:50:38.618Z,103098.09
2019-05-14T22:53:09.333Z,103098.58
2019-05-14T22:55:39.340Z,103091.61
2019-05-14T22:58:09.895Z,103090.72
2019-05-14T23:00:47.113Z,103087.67
2019-05-14T23:03:09.450Z,103081.58
2019-05-14T23:05:39.323Z,103082.08
2019-05-14T23:08:08.903Z,103084.70
2019-05-14T23:10:38.813Z,103085.56
2019-05-14T23:13:09.421Z,103088.61
2019-05-14T23:15:38.703Z,103081.66
2019-05-14T23:18:09.927Z,103082.97
2019-05-14T23:20:39.368Z,103082.98
2019-05-14T23:23:09.364Z,103083.00
2019-05-14T23:25:38.897Z,103085.62
2019-05-14T23:28:08.503Z,103083.91
2019-05-14T23:30:38.868Z,103077.77
2019-05-14T23:33:07.719Z,103076.46
2019-05-14T23:35:38.909Z,103079.53
2019-05-14T23:38:08.363Z,103078.64
2019-05-14T23:40:38.664Z,103084.28
2019-05-14T23:43:07.802Z,103083.42
2019-05-14T23:45:38.040Z,103076.03
2019-05-14T23:48:09.382Z,103073.41
2019-05-14T23:50:38.028Z,103068.61
2019-05-14T23:53:09.201Z,103072.56
2019-05-14T23:55:38.575Z,103047.30
2019-05-14T23:58:08.340Z,103068.23
